KAUW/AUW METAR and TAF weather

Enter ICAO airport designator
Station Type Date Time Source
KAUW METAR 2020/09/26 20:10 UTC NOAA

KAUW 262010Z AUTO 13008KT 10SM FEW017 BKN070 BKN095 21/ A2956 RMK AO2 LTG DSNT ALQDS RAE05 TSE06 P0000 T0206 $


Station Type Date Time Source
KAUW Decoded METAR 2020/09/26 20:10 UTC NOAA

WAUSAU DOWNTOWN AIRPORT, WI, United States (KAUW) 44-56N 089-37W 362M
Sep 26, 2020 - 04:10 PM EDT / 2020.09.26 2010 UTC
Wind: from the SE (130 degrees) at 9 MPH (8 KT):0
Visibility: 10 mile(s):0
Sky conditions: mostly cloudy
Weather: Lightning observed
Precipitation last hour: A trace
Temperature: 69 F (21 C)
Pressure (altimeter): 29.56 in. Hg (1001 hPa)
ob: KAUW 262010Z AUTO 13008KT 10SM FEW017 BKN070 BKN095 21/ A2956 RMK AO2 LTG DSNT ALQDS RAE05 TSE06 P0000 T0206
cycle: 20

Station Type Date Time Source
KAUW TAF 2020/09/26 19:52 UTC NOAA

TAF
AMD KAUW 261850Z 2619/2718 20004KT P6SM VCSH FEW020 BKN150
TEMPO 2619/2620 -TSRA SCT025CB
FM262100 15009G17KT P6SM VCSH OVC035
TEMPO 2622/2701 2SM TSRA OVC020CB
FM270100 18010KT P6SM OVC025
FM270300 21010G16KT P6SM SCT120 BKN250 WS020/23040KT
FM271200 25008KT P6SM SCT200
FM271600 26010G18KT P6SM VCSH SCT050 BKN150

Example: see airport list